Data for 06/26/2013

Time Sea-Level Adjusted Pressure Absolute Pressure Temperature Relative Humidity Dew Point   
(mb) (inHg) (mb) (inHg) (C) (F) (%) (C) (F)
00:05 1018 30.06 847 25.01 13.8 56.8 80 10.4 50.7
00:10 1018 30.06 847 25.01 13.7 56.7 76 9.5 49.1
00:15 1018 30.06 847 25.01 14.2 57.6 74 9.7 49.4
00:20 1018 30.06 847 25.01 14.2 57.6 79 10.6 51
00:25 1018 30.06 847 25.01 14 57.1 72 9.1 48.4
00:30 1018 30.06 847 25.01 14.2 57.5 73 9.4 48.9
00:35 1018 30.06 847 25.01 14.2 57.5 70 8.9 48
00:40 1018 30.06 847 25.01 14.1 57.5 71 9 48.1
00:45 1018 30.06 847 25.01 14.1 57.3 71 8.9 48
00:50 1018 30.06 847 25.01 14 57.1 69 8.4 47
00:55 1017 30.03 847 25.01 14.2 57.6 66 8 46.4
01:00 1018 30.06 847 25.01 14.4 57.8 66 8.1 46.5
01:05 1017 30.03 847 25.01 14.3 57.7 69 8.7 47.6
01:10 1017 30.03 847 25.01 14.1 57.3 68 8.4 47.1
01:15 1017 30.03 847 25.01 14.1 57.3 69 8.6 47.5
01:20 1017 30.03 847 25.01 14.1 57.4 72 9.3 48.7
01:25 1017 30.03 847 25.01 13.9 57.1 76 9.8 49.6
01:30 1017 30.03 847 25.01 13.3 56 75 9 48.2
01:35 1017 30.03 847 25.01 13.2 55.8 76 9.2 48.6
01:40 1017 30.03 847 25.01 13.3 55.9 74 8.8 47.8
01:45 1017 30.03 846 24.98 13.4 56.1 75 9 48.3
01:50 1017 30.03 847 25.01 13.7 56.7 71 8.5 47.3
01:55 1018 30.06 847 25.01 14 57.2 63 7.1 44.7
02:00 1018 30.06 847 25.01 14.4 57.9 70 9 48.3
02:05 1018 30.06 847 25.01 14 57.2 74 9.5 49.2
02:10 1018 30.06 847 25.01 13.5 56.2 77 9.5 49.1
02:15 1018 30.06 847 25.01 13.3 55.9 79 9.8 49.6
02:20 1018 30.06 847 25.01 13.3 55.9 63 6.5 43.8
02:25 1018 30.06 847 25.01 14.7 58.5 58 6.5 43.7
02:30 1018 30.06 847 25.01 15.2 59.3 56 6.5 43.8
02:35 1018 30.06 847 25.01 15.3 59.6 54 6.2 43.2
02:40 1018 30.06 847 25.01 15.6 60 53 6.1 42.9
02:45 1018 30.06 847 25.01 15.9 60.5 52 6.2 43.2
02:50 1018 30.06 847 25.01 15.7 60.2 53 6.3 43.4
02:55 1018 30.06 847 25.01 15.6 60 54 6.4 43.5
03:00 1018 30.06 847 25.01 15.5 59.8 54 6.3 43.3
03:05 1018 30.06 847 25.01 15.4 59.7 55 6.6 43.8
03:10 1018 30.06 847 25.01 15.3 59.5 56 6.6 43.8
03:15 1017 30.03 847 25.01 15.2 59.3 60 7.5 45.6
03:20 1017 30.03 847 25.01 14.9 58.8 61 7.5 45.5
03:25 1017 30.03 847 25.01 14.6 58.3 59 6.7 44
03:30 1017 30.03 847 25.01 14.8 58.6 59 6.9 44.4
03:35 1018 30.06 847 25.01 14.9 58.8 58 6.8 44.2
03:40 1018 30.06 847 25.01 14.9 58.8 57 6.5 43.6
03:45 1018 30.06 847 25.01 15 58.9 58 6.9 44.4
03:50 1018 30.06 847 25.01 15 58.9 61 7.7 45.8
03:55 1018 30.06 847 25.01 14.8 58.6 61 7.4 45.4
04:00 1018 30.06 847 25.01 14.8 58.6 57 6.4 43.5
04:05 1018 30.06 847 25.01 15.1 59.1 56 6.5 43.7
04:10 1018 30.06 847 25.01 15.2 59.3 55 6.3 43.4
04:15 1018 30.06 847 25.01 15.3 59.5 53 5.8 42.4
04:20 1018 30.06 847 25.01 15.3 59.6 53 5.9 42.7
04:25 1018 30.06 847 25.01 15.5 59.9 53 5.9 42.7
04:30 1018 30.06 847 25.01 15.5 59.9 54 6.2 43.2
04:35 1018 30.06 847 25.01 15.4 59.7 54 6.3 43.4
04:40 1018 30.06 847 25.01 15.3 59.5 56 6.5 43.7
04:45 1018 30.06 847 25.01 15.2 59.3 55 6.4 43.4
04:50 1018 30.06 847 25.01 15 59 57 6.6 43.9
04:55 1018 30.06 847 25.01 14.9 58.8 57 6.6 44
05:00 1018 30.06 847 25.01 14.8 58.7 58 6.6 43.9
05:05 1018 30.06 847 25.01 14.8 58.7 59 7 44.6
05:10 1018 30.06 847 25.01 14.8 58.7 61 7.4 45.4
05:15 1018 30.06 847 25.01 14.7 58.4 58 6.7 44
05:20 1018 30.06 847 25.01 14.6 58.3 64 8 46.3
05:25 1018 30.06 848 25.04 14.3 57.7 64 7.7 45.8
05:30 1018 30.06 848 25.04 14.2 57.5 64 7.5 45.6
05:35 1018 30.06 848 25.04 14.4 58 63 7.4 45.4
05:40 1018 30.06 848 25.04 14.9 58.9 59 7.2 44.9
05:45 1019 30.09 848 25.04 15.7 60.2 55 6.9 44.4
05:50 1019 30.09 848 25.04 15.8 60.4 58 7.6 45.6
05:55 1019 30.09 848 25.04 15.7 60.3 57 7.4 45.3
06:00 1019 30.09 848 25.04 16.2 61.1 54 7.1 44.7
06:05 1019 30.09 848 25.04 16.2 61.2 57 7.8 46.1
06:10 1019 30.09 848 25.04 16.2 61.1 58 7.9 46.3
06:15 1019 30.09 848 25.04 16.1 61 58 7.8 46.1
06:20 1019 30.09 848 25.04 16.4 61.5 52 6.8 44.2
06:25 1019 30.09 848 25.04 16.5 61.6 53 6.9 44.5
06:30 1019 30.09 848 25.04 16.4 61.5 53 7 44.7
06:35 1019 30.09 848 25.04 16.3 61.4 52 6.6 44
06:40 1019 30.09 848 25.04 16.3 61.4 51 6.3 43.4
06:45 1019 30.09 848 25.04 16.5 61.7 50 6.2 43.2
06:50 1019 30.09 848 25.04 16.7 62 49 6 42.9
06:55 1019 30.09 848 25.04 16.7 62 51 6.6 43.8
07:00 1019 30.09 848 25.04 16.6 61.9 50 6.4 43.5
07:05 1019 30.09 848 25.04 16.6 61.8 51 6.6 43.8
07:10 1019 30.09 848 25.04 16.6 61.9 48 5.8 42.4
07:15 1019 30.09 848 25.04 16.7 62.1 49 6.1 43
07:20 1019 30.09 848 25.04 16.7 62.1 49 6 42.7
07:25 1019 30.09 849 25.07 16.8 62.2 49 6.1 43
07:30 1019 30.09 849 25.07 16.8 62.3 49 6.2 43.1
07:35 1019 30.09 849 25.07 16.9 62.4 48 6 42.7
07:40 1019 30.09 849 25.07 17.1 62.7 49 6.3 43.3
07:45 1019 30.09 849 25.07 17.3 63.1 49 6.6 44
07:50 1019 30.09 849 25.07 17.3 63.2 48 6.3 43.3
07:55 1019 30.09 849 25.07 17.5 63.5 49 6.8 44.3
08:00 1019 30.09 849 25.07 17.4 63.4 49 6.8 44.3
08:05 1019 30.09 849 25.07 17.5 63.5 48 6.5 43.7
08:10 1019 30.09 849 25.07 17.6 63.7 48 6.7 44.1
08:15 1019 30.09 849 25.07 17.8 64.1 48 6.6 43.9
08:20 1020 30.12 849 25.07 18.1 64.7 43 5.6 42.1
08:25 1020 30.12 849 25.07 18.1 64.6 45 6 42.9
08:30 1020 30.12 849 25.07 18.2 64.7 45 6.1 43
08:35 1020 30.12 849 25.07 18.7 65.6 41 5.4 41.7
08:40 1020 30.12 849 25.07 19.2 66.5 39 5.1 41.2
08:45 1020 30.12 849 25.07 19.2 66.6 39 5.1 41.1
08:50 1020 30.12 849 25.07 19.2 66.6 39 5 41
08:55 1020 30.12 849 25.07 19.4 66.9 36 4.2 39.6
09:00 1020 30.12 849 25.07 19.7 67.5 36 4.5 40
09:05 1020 30.12 849 25.07 20 67.9 37 5 41
09:10 1020 30.12 849 25.07 19.8 67.7 37 4.9 40.7
09:15 1020 30.12 849 25.07 20 68 38 5.4 41.7
09:20 1020 30.12 849 25.07 20.1 68.2 40 6.2 43.1
09:25 1020 30.12 849 25.07 20.6 69 35 4.8 40.6
09:30 1020 30.12 849 25.07 20.6 69.1 35 4.9 40.9
09:35 1020 30.12 849 25.07 20.8 69.5 35 4.9 40.8
09:40 1020 30.12 849 25.07 20.7 69.2 37 5.5 41.9
09:45 1020 30.12 849 25.07 20.5 68.9 38 5.9 42.6
09:50 1020 30.12 849 25.07 20.8 69.4 36 5.5 41.8
09:55 1020 30.12 849 25.07 20.9 69.7 36 5.3 41.6
10:00 1020 30.12 849 25.07 21.1 70 35 5.3 41.5
10:05 1020 30.12 849 25.07 21 69.7 36 5.5 41.9
10:10 1020 30.12 849 25.07 20.9 69.6 36 5.5 42
10:15 1020 30.12 849 25.07 20.7 69.3 37 5.7 42.3
10:20 1020 30.12 849 25.07 20.7 69.2 37 5.7 42.3
10:25 1020 30.12 849 25.07 20.4 68.7 38 5.8 42.4
10:30 1020 30.12 849 25.07 20.3 68.6 40 6.5 43.8
10:35 1020 30.12 849 25.07 20.3 68.5 39 6.1 42.9
10:40 1020 30.12 849 25.07 21 69.8 38 6.4 43.4
10:45 1020 30.12 849 25.07 20.9 69.7 38 6.1 43
10:50 1020 30.12 849 25.07 20.8 69.4 38 6.1 42.9
10:55 1020 30.12 849 25.07 21.5 70.7 37 6.3 43.3
11:00 1020 30.12 849 25.07 21.3 70.4 38 6.7 44
11:05 1020 30.12 849 25.07 21.4 70.4 39 7.2 44.9
11:10 1020 30.12 849 25.07 21.6 70.9 39 7.1 44.8
11:15 1020 30.12 849 25.07 21.2 70.1 39 6.8 44.3
11:20 1020 30.12 849 25.07 21.6 70.8 37 6.6 43.9
11:25 1020 30.12 849 25.07 21.6 70.9 41 7.8 46.1
11:30 1020 30.12 849 25.07 21.4 70.4 40 7.3 45.1
11:35 1020 30.12 849 25.07 21.4 70.5 39 6.9 44.5
11:40 1020 30.12 849 25.07 21.2 70.1 39 7 44.6
11:45 1020 30.12 849 25.07 21.4 70.5 39 7 44.7
11:50 1020 30.12 849 25.07 21.3 70.4 39 7.1 44.9
11:55 1020 30.12 849 25.07 21.2 70.1 39 6.8 44.2
12:00 1020 30.12 849 25.07 21.2 70.1 42 8 46.4
12:05 1020 30.12 849 25.07 20.6 69 45 8.3 47
12:10 1020 30.12 849 25.07 20.4 68.6 44 7.8 46.1
12:15 1020 30.12 849 25.07 20 68 45 7.7 45.9
12:20 1020 30.12 849 25.07 20 68 44 7.4 45.4
12:25 1020 30.12 849 25.07 20.2 68.3 43 7.5 45.5
12:30 1020 30.12 849 25.07 20.8 69.4 40 6.9 44.4
12:35 1020 30.12 849 25.07 20.6 69.1 40 6.7 44.1
12:40 1020 30.12 849 25.07 21 69.7 38 6.3 43.3
12:45 1020 30.12 849 25.07 20.7 69.2 41 7.1 44.7
12:50 1020 30.12 849 25.07 20.3 68.5 41 6.8 44.3
12:55 1020 30.12 849 25.07 20.7 69.2 39 6.6 43.8
13:00 1020 30.12 849 25.07 20.5 69 40 6.7 44
13:05 1020 30.12 849 25.07 20.7 69.2 40 6.6 43.9
13:10 1020 30.12 849 25.07 20.5 68.9 41 6.9 44.4
13:15 1020 30.12 849 25.07 20.3 68.6 38 5.8 42.4
13:20 1020 30.12 849 25.07 20.3 68.5 39 6.1 43
13:25 1020 30.12 849 25.07 20.8 69.4 38 6 42.9
13:30 1020 30.12 849 25.07 20.8 69.4 37 5.9 42.5
13:35 1020 30.12 849 25.07 20.9 69.6 37 6 42.7
13:40 1020 30.12 849 25.07 20.7 69.3 39 6.3 43.4
13:45 1020 30.12 849 25.07 21 69.7 39 6.6 43.9
13:50 1020 30.12 849 25.07 21.4 70.5 37 6.3 43.4
13:55 1020 30.12 850 25.1 21.2 70.1 45 8.8 47.9
14:00 1020 30.12 850 25.1 20 68 51 9.7 49.4
14:05 1020 30.12 850 25.1 19.1 66.4 53 9.4 48.9
14:10 1020 30.12 849 25.07 19.3 66.7 52 9.3 48.8
14:15 1020 30.12 849 25.07 19.4 67 49 8.7 47.7
14:20 1020 30.12 849 25.07 20 67.9 47 8.5 47.3
14:25 1020 30.12 849 25.07 20.4 68.8 48 9.4 48.8
14:30 1020 30.12 849 25.07 20 68 48 8.9 47.9
14:35 1020 30.12 849 25.07 20.3 68.5 50 9.7 49.5
14:40 1020 30.12 849 25.07 20.4 68.8 47 8.8 47.9
14:45 1020 30.12 849 25.07 20.2 68.3 45 8.2 46.7
14:50 1020 30.12 849 25.07 20.7 69.2 44 8 46.4
14:55 1020 30.12 849 25.07 21.1 70 44 8.5 47.4
15:00 1020 30.12 849 25.07 21.1 70 42 8 46.3
15:05 1020 30.12 849 25.07 21.4 70.6 40 7.4 45.3
15:10 1020 30.12 849 25.07 21.4 70.5 40 7.2 45
15:15 1020 30.12 849 25.07 21.3 70.4 41 7.6 45.6
15:20 1020 30.12 849 25.07 21.7 71.1 38 7.1 44.8
15:25 1020 30.12 849 25.07 21.9 71.4 40 7.7 45.9
15:30 1020 30.12 849 25.07 21.8 71.3 39 7.3 45.2
15:35 1020 30.12 849 25.07 21.4 70.5 39 7 44.5
15:40 1020 30.12 849 25.07 21.4 70.6 36 6.1 42.9
15:45 1020 30.12 849 25.07 21.9 71.5 38 7.2 45
15:50 1020 30.12 849 25.07 22.6 72.6 36 7.1 44.8
15:55 1020 30.12 849 25.07 22.5 72.6 37 7.4 45.4
16:00 1020 30.12 849 25.07 23.3 73.9 34 6.9 44.3
16:05 1020 30.12 849 25.07 22.7 72.9 34 6.2 43.2
16:10 1020 30.12 849 25.07 22.7 72.9 34 6.1 43
16:15 1020 30.12 849 25.07 23 73.4 33 6.3 43.3
16:20 1020 30.12 849 25.07 23.9 75.1 33 6.8 44.2
16:25 1020 30.12 849 25.07 24.4 75.8 32 6.7 44.1
16:30 1020 30.12 849 25.07 24.4 76 29 5.3 41.6
16:35 1020 30.12 849 25.07 24.8 76.7 29 5.9 42.7
16:40 1020 30.12 849 25.07 24.5 76.1 32 7 44.6
16:45 1020 30.12 849 25.07 23.7 74.6 31 5.9 42.6
16:50 1020 30.12 849 25.07 23.8 74.8 36 8 46.4
16:55 1020 30.12 849 25.07 23.5 74.4 34 7 44.7
17:00 1020 30.12 849 25.07 22.8 73 36 7.2 44.9
17:05 1020 30.12 849 25.07 22.2 72 39 7.8 46
17:10 1020 30.12 849 25.07 22 71.6 40 7.9 46.2
17:15 1020 30.12 849 25.07 21.6 70.9 40 7.6 45.8
17:20 1020 30.12 849 25.07 21.4 70.4 41 7.8 46
17:05 1024 30.24 853 25.19 30.1 86.1 19 4.6 40.3
17:10 1024 30.24 853 25.19 30.3 86.5 22 6.2 43.2
17:15 1024 30.24 853 25.19 30.1 86.2 19 4.5 40.2
17:20 1024 30.24 853 25.19 29.3 84.8 20 4.7 40.5
17:25 1024 30.24 853 25.19 29 84.3 21 5.2 41.3
17:30 1024 30.24 853 25.19 28.9 84.1 21 4.9 40.8
17:35 1024 30.24 853 25.19 29.1 84.5 21 4.7 40.5
17:40 1024 30.24 853 25.19 29 84.3 20 4.2 39.5
17:45 1024 30.24 853 25.19 29.1 84.5 20 4.6 40.2
17:50 1024 30.24 853 25.19 29.4 85 20 4.5 40.1
17:55 1024 30.24 853 25.19 29.1 84.4 21 5 41.1
18:00 1024 30.24 853 25.19 28.8 83.8 21 4.9 40.9
18:05 1024 30.24 853 25.19 28.6 83.5 21 4.6 40.3
18:10 1024 30.24 853 25.19 28.6 83.5 21 4.4 39.9
18:15 1024 30.24 853 25.19 28.7 83.7 21 4.5 40.1
18:20 1024 30.24 853 25.19 28.7 83.7 22 5.1 41.1
18:25 1024 30.24 853 25.19 28.7 83.6 21 4.7 40.5
18:30 1024 30.24 853 25.19 28.8 83.9 22 5.5 41.9
18:35 1024 30.24 853 25.19 28.5 83.2 22 5.1 41.3
18:40 1024 30.24 853 25.19 28.2 82.7 22 4.5 40
18:45 1024 30.24 853 25.19 28.1 82.5 21 3.9 39
18:50 1024 30.24 853 25.19 28.1 82.6 21 4.1 39.3
18:55 1024 30.24 853 25.19 28 82.3 21 3.8 38.9
19:00 1024 30.24 853 25.19 27.9 82.2 21 3.9 38.9
19:05 1024 30.24 853 25.19 27.9 82.3 21 3.6 38.5
19:10 1024 30.24 853 25.19 27.9 82.2 21 3.8 38.9
19:15 1024 30.24 853 25.19 27.8 82.1 21 3.9 39.1
19:20 1024 30.24 853 25.19 27.7 81.9 21 4 39.2
19:25 1024 30.24 853 25.19 27.6 81.7 22 4.5 40.2
19:30 1024 30.24 853 25.19 27.5 81.5 22 4.4 39.9
19:35 1024 30.24 853 25.19 27.4 81.4 22 4.3 39.7
19:40 1024 30.24 853 25.19 27.4 81.4 22 4 39.2
19:45 1024 30.24 853 25.19 27.4 81.3 22 4 39.1
19:50 1024 30.24 853 25.19 27.3 81.1 24 5.3 41.5
19:55 1024 30.24 853 25.19 27.1 80.8 27 6.6 44
20:00 1024 30.24 853 25.19 26.7 80 32 8.7 47.6
20:05 1024 30.24 854 25.22 25.9 78.5 40 11.4 52.6
20:10 1024 30.24 854 25.22 24.8 76.7 42 11.4 52.5
20:15 1025 30.27 854 25.22 23.9 75 47 12.2 53.9
20:20 1025 30.27 854 25.22 23.4 74.1 47 11.5 52.7
20:25 1025 30.27 854 25.22 23.2 73.7 46 11.1 52
20:30 1025 30.27 854 25.22 23 73.3 48 11.6 52.8
20:35 1025 30.27 854 25.22 22.7 72.8 49 11.6 52.9
20:40 1025 30.27 854 25.22 22.4 72.3 46 10.5 50.8
17:20 1020 30.12 849 25.07 21.4 70.4 41 7.8 46
17:20 1020 30.12 849 25.07 21.4 70.4 41 7.8 46
17:20 1020 30.12 849 25.07 21.4 70.4 41 7.8 46
17:20 1020 30.12 849 25.07 21.4 70.4 41 7.8 46
17:20 1020 30.12 849 25.07 21.4 70.4 41 7.8 46
17:25 1020 30.12 849 25.07 21.3 70.4 43 8.3 47
17:30 1020 30.12 849 25.07 21.5 70.7 38 6.8 44.2
17:35 1020 30.12 849 25.07 21.5 70.7 40 7.4 45.4
17:40 1020 30.12 849 25.07 21.5 70.6 40 7.4 45.3
17:45 1020 30.12 849 25.07 21.7 71 39 7.1 44.9
17:50 1020 30.12 849 25.07 21.9 71.3 38 7 44.6
17:55 1020 30.12 849 25.07 22 71.7 38 7.1 44.7
18:00 1020 30.12 849 25.07 22.3 72.1 37 7 44.6
18:05 1020 30.12 849 25.07 22.3 72.2 37 7.1 44.7
18:10 1020 30.12 849 25.07 22.5 72.5 36 6.9 44.4
18:15 1020 30.12 849 25.07 22.5 72.5 36 7.1 44.7
18:20 1020 30.12 849 25.07 22.2 71.9 38 7.2 45
18:25 1020 30.12 849 25.07 22.1 71.8 38 7.3 45.1
18:30 1020 30.12 849 25.07 22.3 72.1 37 7 44.6
18:35 1020 30.12 849 25.07 22.5 72.4 39 7.8 46.1
18:40 1020 30.12 849 25.07 22.4 72.3 38 7.6 45.6
18:45 1020 30.12 850 25.1 22.2 72 41 8.6 47.6
18:50 1021 30.15 850 25.1 22 71.6 41 8.2 46.8
18:55 1021 30.15 850 25.1 21.7 71.1 40 7.9 46.2
19:00 1021 30.15 850 25.1 21.3 70.3 41 7.5 45.5
19:05 1021 30.15 850 25.1 20.9 69.7 42 7.7 45.8
19:10 1021 30.15 850 25.1 20.6 69.1 43 7.8 46.1
19:15 1021 30.15 850 25.1 20.4 68.6 45 8.2 46.7
19:20 1021 30.15 850 25.1 20.3 68.5 45 8.1 46.7
19:25 1021 30.15 850 25.1 20.1 68.2 45 8 46.4
19:30 1021 30.15 850 25.1 20.2 68.4 43 7.4 45.4
19:35 1021 30.15 850 25.1 20.2 68.4 44 7.7 45.9
19:40 1021 30.15 850 25.1 20.1 68.2 44 7.6 45.8
19:45 1021 30.15 851 25.13 20.1 68.2 44 7.6 45.6
19:50 1021 30.15 851 25.13 20.1 68.1 44 7.5 45.4
19:55 1022 30.18 851 25.13 20 68 44 7.6 45.6
20:00 1022 30.18 851 25.13 19.8 67.6 49 9 48.1
20:05 1022 30.18 851 25.13 19 66.3 53 9.3 48.8
20:10 1022 30.18 851 25.13 18.5 65.3 56 9.7 49.4
20:15 1022 30.18 851 25.13 18.3 65 57 9.7 49.4
20:20 1022 30.18 851 25.13 18.3 65 60 10.4 50.7
20:25 1022 30.18 851 25.13 18.2 64.8 60 10.5 50.9
20:30 1022 30.18 851 25.13 18.1 64.6 63 11.1 51.9
20:35 1022 30.18 851 25.13 17.9 64.3 66 11.6 52.8
20:40 1022 30.18 851 25.13 17.6 63.7 69 11.8 53.3
20:45 1022 30.18 851 25.13 17.4 63.4 70 11.9 53.4
20:50 1022 30.18 851 25.13 17.2 63 71 11.9 53.3
20:55 1022 30.18 851 25.13 17 62.6 71 11.8 53.3
21:00 1022 30.18 851 25.13 16.9 62.5 71 11.8 53.2
21:05 1022 30.18 851 25.13 16.9 62.4 71 11.8 53.2
21:10 1022 30.18 851 25.13 16.9 62.4 71 11.7 53.1
21:15 1022 30.18 852 25.16 16.9 62.4 70 11.5 52.6
21:20 1022 30.18 852 25.16 17 62.5 70 11.6 52.8
21:25 1023 30.21 852 25.16 16.9 62.5 71 11.6 53
21:30 1023 30.21 852 25.16 16.6 62 73 11.9 53.4
21:35 1023 30.21 852 25.16 16.3 61.3 73 11.6 52.8
21:40 1023 30.21 852 25.16 16.2 61.1 74 11.5 52.7
21:45 1023 30.21 852 25.16 16.1 60.9 74 11.4 52.5
21:50 1023 30.21 852 25.16 15.9 60.6 74 11.3 52.3
21:55 1023 30.21 852 25.16 15.9 60.6 76 11.7 53
22:00 1023 30.21 852 25.16 15.9 60.6 70 10.6 51
22:05 1023 30.21 852 25.16 15.7 60.2 70 10.3 50.5
22:10 1023 30.21 852 25.16 15.6 60.1 69 10 50
22:15 1023 30.21 852 25.16 15.4 59.7 70 10 49.9
22:20 1023 30.21 852 25.16 15.1 59.1 70 9.7 49.5
22:25 1023 30.21 852 25.16 15.1 59.1 70 9.8 49.6
22:30 1023 30.21 852 25.16 15 59.1 71 9.9 49.8
22:35 1023 30.21 852 25.16 15 58.9 72 10 50
22:40 1023 30.21 852 25.16 14.9 58.7 73 10.1 50.1
22:45 1023 30.21 852 25.16 14.9 58.7 73 10.2 50.3
22:50 1023 30.21 852 25.16 14.9 58.7 73 10.2 50.3
22:55 1023 30.21 852 25.16 14.8 58.7 73 10 50
23:00 1023 30.21 852 25.16 14.9 58.8 72 9.9 49.8
23:05 1023 30.21 852 25.16 14.8 58.7 72 9.9 49.9
23:10 1023 30.21 852 25.16 14.6 58.3 73 9.9 49.9
23:15 1023 30.21 852 25.16 14.5 58.1 76 10.5 50.8
23:20 1023 30.21 852 25.16 14.5 58 74 9.9 49.9
23:25 1023 30.21 852 25.16 14.3 57.7 74 9.7 49.4
23:30 1023 30.21 852 25.16 14.2 57.5 75 9.8 49.6
23:35 1023 30.21 852 25.16 14 57.2 76 9.8 49.7
23:40 1023 30.21 852 25.16 14 57.1 75 9.7 49.5
23:45 1023 30.21 852 25.16 13.9 57.1 75 9.7 49.4
23:50 1023 30.21 852 25.16 14 57.2 74 9.4 49
23:55 1023 30.21 852 25.16 14 57.2 74 9.5 49.2
24:00 1023 30.21 852 25.16 13.8 56.9 75 9.6 49.2